sensor_id;sensor_type;location;lat;lon;timestamp;P1;durP1;ratioP1;P2;durP2;ratioP2
20945;SDS011;10632;51.276;7.116;2023-09-18T00:00:33;6.50;;;2.83;;
20945;SDS011;10632;51.276;7.116;2023-09-18T00:03:05;5.85;;;2.80;;
20945;SDS011;10632;51.276;7.116;2023-09-18T00:05:32;5.53;;;2.50;;
20945;SDS011;10632;51.276;7.116;2023-09-18T00:07:59;7.75;;;2.50;;
20945;SDS011;10632;51.276;7.116;2023-09-18T00:10:27;7.72;;;2.50;;
20945;SDS011;10632;51.276;7.116;2023-09-18T00:12:55;4.55;;;2.45;;
20945;SDS011;10632;51.276;7.116;2023-09-18T00:15:22;8.27;;;2.30;;
20945;SDS011;10632;51.276;7.116;2023-09-18T00:17:50;6.72;;;2.40;;
20945;SDS011;10632;51.276;7.116;2023-09-18T00:20:18;4.88;;;2.10;;
20945;SDS011;10632;51.276;7.116;2023-09-18T00:22:45;6.28;;;2.28;;
20945;SDS011;10632;51.276;7.116;2023-09-18T00:25:12;4.47;;;2.20;;
20945;SDS011;10632;51.276;7.116;2023-09-18T00:27:40;7.63;;;2.63;;
20945;SDS011;10632;51.276;7.116;2023-09-18T00:30:07;5.28;;;2.42;;
20945;SDS011;10632;51.276;7.116;2023-09-18T00:32:34;5.22;;;2.42;;
20945;SDS011;10632;51.276;7.116;2023-09-18T00:35:01;4.25;;;2.20;;
20945;SDS011;10632;51.276;7.116;2023-09-18T00:37:29;7.82;;;2.08;;
20945;SDS011;10632;51.276;7.116;2023-09-18T00:39:56;5.00;;;1.95;;
20945;SDS011;10632;51.276;7.116;2023-09-18T00:42:24;4.70;;;2.03;;
20945;SDS011;10632;51.276;7.116;2023-09-18T00:44:51;4.60;;;2.30;;
20945;SDS011;10632;51.276;7.116;2023-09-18T00:47:18;5.20;;;2.35;;
20945;SDS011;10632;51.276;7.116;2023-09-18T00:49:46;6.40;;;2.17;;
20945;SDS011;10632;51.276;7.116;2023-09-18T00:52:15;5.35;;;2.08;;
20945;SDS011;10632;51.276;7.116;2023-09-18T00:54:45;4.75;;;2.28;;
20945;SDS011;10632;51.276;7.116;2023-09-18T00:57:17;5.47;;;2.33;;
20945;SDS011;10632;51.276;7.116;2023-09-18T00:59:44;11.90;;;2.72;;
20945;SDS011;10632;51.276;7.116;2023-09-18T01:02:11;5.32;;;2.30;;
20945;SDS011;10632;51.276;7.116;2023-09-18T01:04:38;5.70;;;2.30;;
20945;SDS011;10632;51.276;7.116;2023-09-18T01:07:09;7.75;;;2.28;;
20945;SDS011;10632;51.276;7.116;2023-09-18T01:09:36;5.70;;;2.30;;
20945;SDS011;10632;51.276;7.116;2023-09-18T01:12:06;4.15;;;2.25;;
20945;SDS011;10632;51.276;7.116;2023-09-18T01:14:42;7.55;;;2.70;;
20945;SDS011;10632;51.276;7.116;2023-09-18T01:17:16;9.25;;;2.65;;
20945;SDS011;10632;51.276;7.116;2023-09-18T01:19:45;5.95;;;2.40;;
20945;SDS011;10632;51.276;7.116;2023-09-18T01:22:13;4.82;;;2.10;;
20945;SDS011;10632;51.276;7.116;2023-09-18T01:24:45;5.90;;;2.00;;
20945;SDS011;10632;51.276;7.116;2023-09-18T01:27:20;4.55;;;2.13;;
20945;SDS011;10632;51.276;7.116;2023-09-18T01:29:48;5.40;;;2.15;;
20945;SDS011;10632;51.276;7.116;2023-09-18T01:32:15;4.10;;;1.80;;
20945;SDS011;10632;51.276;7.116;2023-09-18T01:34:44;7.25;;;2.45;;
20945;SDS011;10632;51.276;7.116;2023-09-18T01:37:14;4.25;;;2.20;;
20945;SDS011;10632;51.276;7.116;2023-09-18T01:39:43;6.68;;;2.10;;
20945;SDS011;10632;51.276;7.116;2023-09-18T01:42:13;8.50;;;2.05;;
20945;SDS011;10632;51.276;7.116;2023-09-18T01:44:41;5.07;;;2.13;;
20945;SDS011;10632;51.276;7.116;2023-09-18T01:47:08;9.52;;;2.50;;
20945;SDS011;10632;51.276;7.116;2023-09-18T01:49:39;6.50;;;2.28;;
20945;SDS011;10632;51.276;7.116;2023-09-18T01:52:07;4.85;;;2.45;;
20945;SDS011;10632;51.276;7.116;2023-09-18T01:54:35;4.43;;;1.90;;
20945;SDS011;10632;51.276;7.116;2023-09-18T01:57:04;5.32;;;1.95;;
20945;SDS011;10632;51.276;7.116;2023-09-18T01:59:32;7.53;;;2.00;;
20945;SDS011;10632;51.276;7.116;2023-09-18T02:02:00;10.93;;;2.42;;
20945;SDS011;10632;51.276;7.116;2023-09-18T02:04:32;8.95;;;2.03;;
20945;SDS011;10632;51.276;7.116;2023-09-18T02:06:58;5.97;;;2.03;;
20945;SDS011;10632;51.276;7.116;2023-09-18T02:09:25;6.43;;;2.03;;
20945;SDS011;10632;51.276;7.116;2023-09-18T02:11:52;3.67;;;2.00;;
20945;SDS011;10632;51.276;7.116;2023-09-18T02:14:20;4.93;;;2.15;;
20945;SDS011;10632;51.276;7.116;2023-09-18T02:16:50;5.90;;;2.13;;
20945;SDS011;10632;51.276;7.116;2023-09-18T02:19:19;4.50;;;1.88;;
20945;SDS011;10632;51.276;7.116;2023-09-18T02:21:45;5.65;;;2.20;;
20945;SDS011;10632;51.276;7.116;2023-09-18T02:24:13;5.90;;;1.88;;
20945;SDS011;10632;51.276;7.116;2023-09-18T02:26:40;5.90;;;2.00;;
20945;SDS011;10632;51.276;7.116;2023-09-18T02:29:07;4.72;;;2.05;;
20945;SDS011;10632;51.276;7.116;2023-09-18T02:31:40;5.43;;;2.00;;
20945;SDS011;10632;51.276;7.116;2023-09-18T02:34:07;5.57;;;1.90;;
20945;SDS011;10632;51.276;7.116;2023-09-18T02:36:34;3.85;;;1.90;;
20945;SDS011;10632;51.276;7.116;2023-09-18T02:39:02;6.88;;;2.03;;
20945;SDS011;10632;51.276;7.116;2023-09-18T02:41:31;5.45;;;2.10;;
20945;SDS011;10632;51.276;7.116;2023-09-18T02:43:58;7.22;;;2.20;;
20945;SDS011;10632;51.276;7.116;2023-09-18T02:46:25;6.90;;;2.13;;
20945;SDS011;10632;51.276;7.116;2023-09-18T02:48:53;6.35;;;2.00;;
20945;SDS011;10632;51.276;7.116;2023-09-18T02:51:20;3.33;;;1.70;;
20945;SDS011;10632;51.276;7.116;2023-09-18T02:53:47;5.65;;;1.92;;
20945;SDS011;10632;51.276;7.116;2023-09-18T02:56:13;3.38;;;1.70;;
20945;SDS011;10632;51.276;7.116;2023-09-18T02:58:40;6.70;;;2.22;;
20945;SDS011;10632;51.276;7.116;2023-09-18T03:01:07;6.18;;;1.88;;
20945;SDS011;10632;51.276;7.116;2023-09-18T03:03:34;7.80;;;1.70;;
20945;SDS011;10632;51.276;7.116;2023-09-18T03:06:03;5.55;;;1.88;;
20945;SDS011;10632;51.276;7.116;2023-09-18T03:08:31;6.50;;;1.77;;
20945;SDS011;10632;51.276;7.116;2023-09-18T03:10:59;9.18;;;1.90;;
20945;SDS011;10632;51.276;7.116;2023-09-18T03:13:28;4.35;;;1.90;;
20945;SDS011;10632;51.276;7.116;2023-09-18T03:15:55;4.10;;;1.90;;
20945;SDS011;10632;51.276;7.116;2023-09-18T03:18:22;5.07;;;2.00;;
20945;SDS011;10632;51.276;7.116;2023-09-18T03:20:49;8.00;;;2.25;;
20945;SDS011;10632;51.276;7.116;2023-09-18T03:23:17;5.10;;;1.77;;
20945;SDS011;10632;51.276;7.116;2023-09-18T03:25:45;4.75;;;1.83;;
20945;SDS011;10632;51.276;7.116;2023-09-18T03:28:12;7.35;;;2.03;;
20945;SDS011;10632;51.276;7.116;2023-09-18T03:30:39;10.38;;;2.08;;
20945;SDS011;10632;51.276;7.116;2023-09-18T03:33:07;6.50;;;2.10;;
20945;SDS011;10632;51.276;7.116;2023-09-18T03:35:37;3.95;;;2.00;;
20945;SDS011;10632;51.276;7.116;2023-09-18T03:38:12;4.35;;;1.90;;
20945;SDS011;10632;51.276;7.116;2023-09-18T03:40:40;7.70;;;1.73;;
20945;SDS011;10632;51.276;7.116;2023-09-18T03:43:07;3.60;;;1.58;;
20945;SDS011;10632;51.276;7.116;2023-09-18T03:45:34;5.43;;;2.17;;
20945;SDS011;10632;51.276;7.116;2023-09-18T03:48:01;6.85;;;1.88;;
20945;SDS011;10632;51.276;7.116;2023-09-18T03:50:28;4.68;;;2.10;;
20945;SDS011;10632;51.276;7.116;2023-09-18T03:52:55;4.82;;;2.05;;
20945;SDS011;10632;51.276;7.116;2023-09-18T03:55:22;5.40;;;1.95;;
20945;SDS011;10632;51.276;7.116;2023-09-18T03:57:51;4.80;;;1.90;;
20945;SDS011;10632;51.276;7.116;2023-09-18T04:00:19;8.43;;;1.80;;
20945;SDS011;10632;51.276;7.116;2023-09-18T04:02:47;4.50;;;2.00;;
20945;SDS011;10632;51.276;7.116;2023-09-18T04:05:13;5.10;;;2.35;;
20945;SDS011;10632;51.276;7.116;2023-09-18T04:07:40;5.15;;;1.90;;
20945;SDS011;10632;51.276;7.116;2023-09-18T04:10:11;7.22;;;2.60;;
20945;SDS011;10632;51.276;7.116;2023-09-18T04:12:43;5.53;;;2.15;;
20945;SDS011;10632;51.276;7.116;2023-09-18T04:15:13;8.95;;;1.88;;
20945;SDS011;10632;51.276;7.116;2023-09-18T04:17:42;7.47;;;2.15;;
20945;SDS011;10632;51.276;7.116;2023-09-18T04:20:09;6.50;;;2.30;;
20945;SDS011;10632;51.276;7.116;2023-09-18T04:22:41;8.73;;;2.13;;
20945;SDS011;10632;51.276;7.116;2023-09-18T04:25:09;7.57;;;2.10;;
20945;SDS011;10632;51.276;7.116;2023-09-18T04:27:36;8.02;;;2.33;;
20945;SDS011;10632;51.276;7.116;2023-09-18T04:30:03;7.63;;;2.50;;
20945;SDS011;10632;51.276;7.116;2023-09-18T04:32:35;7.38;;;2.15;;
20945;SDS011;10632;51.276;7.116;2023-09-18T04:35:03;7.80;;;2.13;;
20945;SDS011;10632;51.276;7.116;2023-09-18T04:37:31;6.85;;;2.28;;
20945;SDS011;10632;51.276;7.116;2023-09-18T04:40:02;4.43;;;2.00;;
20945;SDS011;10632;51.276;7.116;2023-09-18T04:42:34;5.78;;;2.00;;
20945;SDS011;10632;51.276;7.116;2023-09-18T04:45:01;9.90;;;2.30;;
20945;SDS011;10632;51.276;7.116;2023-09-18T04:47:28;6.38;;;2.38;;
20945;SDS011;10632;51.276;7.116;2023-09-18T04:49:56;4.47;;;1.83;;
20945;SDS011;10632;51.276;7.116;2023-09-18T04:52:23;8.02;;;1.98;;
20945;SDS011;10632;51.276;7.116;2023-09-18T04:54:56;5.60;;;2.22;;
20945;SDS011;10632;51.276;7.116;2023-09-18T04:57:23;5.90;;;1.90;;
20945;SDS011;10632;51.276;7.116;2023-09-18T04:59:50;7.13;;;2.03;;
20945;SDS011;10632;51.276;7.116;2023-09-18T05:02:17;9.43;;;2.20;;
20945;SDS011;10632;51.276;7.116;2023-09-18T05:04:45;10.20;;;2.20;;
20945;SDS011;10632;51.276;7.116;2023-09-18T05:07:14;6.10;;;2.10;;
20945;SDS011;10632;51.276;7.116;2023-09-18T05:09:40;7.40;;;2.05;;
20945;SDS011;10632;51.276;7.116;2023-09-18T05:12:08;5.35;;;1.98;;
20945;SDS011;10632;51.276;7.116;2023-09-18T05:14:38;8.02;;;1.60;;
20945;SDS011;10632;51.276;7.116;2023-09-18T05:17:06;5.47;;;2.20;;
20945;SDS011;10632;51.276;7.116;2023-09-18T05:19:35;6.47;;;2.03;;
20945;SDS011;10632;51.276;7.116;2023-09-18T05:22:01;5.57;;;1.80;;
20945;SDS011;10632;51.276;7.116;2023-09-18T05:24:30;7.72;;;1.95;;
20945;SDS011;10632;51.276;7.116;2023-09-18T05:26:57;10.15;;;2.22;;
20945;SDS011;10632;51.276;7.116;2023-09-18T05:29:24;4.97;;;1.85;;
20945;SDS011;10632;51.276;7.116;2023-09-18T05:31:51;8.88;;;2.55;;
20945;SDS011;10632;51.276;7.116;2023-09-18T05:34:18;5.88;;;2.13;;
20945;SDS011;10632;51.276;7.116;2023-09-18T05:36:45;5.72;;;2.00;;
20945;SDS011;10632;51.276;7.116;2023-09-18T05:39:12;6.68;;;1.88;;
20945;SDS011;10632;51.276;7.116;2023-09-18T05:41:43;6.97;;;1.85;;
20945;SDS011;10632;51.276;7.116;2023-09-18T05:44:10;7.55;;;2.10;;
20945;SDS011;10632;51.276;7.116;2023-09-18T05:46:37;7.95;;;1.88;;
20945;SDS011;10632;51.276;7.116;2023-09-18T05:49:07;6.32;;;1.85;;
20945;SDS011;10632;51.276;7.116;2023-09-18T05:51:34;4.05;;;1.90;;
20945;SDS011;10632;51.276;7.116;2023-09-18T05:54:01;7.70;;;1.83;;
20945;SDS011;10632;51.276;7.116;2023-09-18T05:56:29;7.55;;;2.10;;
20945;SDS011;10632;51.276;7.116;2023-09-18T05:58:58;6.05;;;2.00;;
20945;SDS011;10632;51.276;7.116;2023-09-18T06:01:24;6.97;;;1.92;;
20945;SDS011;10632;51.276;7.116;2023-09-18T06:03:55;8.15;;;1.90;;
20945;SDS011;10632;51.276;7.116;2023-09-18T06:06:22;4.38;;;1.80;;
20945;SDS011;10632;51.276;7.116;2023-09-18T06:08:50;6.72;;;2.15;;
20945;SDS011;10632;51.276;7.116;2023-09-18T06:11:18;7.38;;;1.77;;
20945;SDS011;10632;51.276;7.116;2023-09-18T06:13:45;5.88;;;1.63;;
20945;SDS011;10632;51.276;7.116;2023-09-18T06:16:15;6.38;;;2.20;;
20945;SDS011;10632;51.276;7.116;2023-09-18T06:18:42;7.40;;;1.70;;
20945;SDS011;10632;51.276;7.116;2023-09-18T06:21:09;10.38;;;1.90;;
20945;SDS011;10632;51.276;7.116;2023-09-18T06:23:36;6.70;;;1.83;;
20945;SDS011;10632;51.276;7.116;2023-09-18T06:26:03;3.50;;;1.50;;
20945;SDS011;10632;51.276;7.116;2023-09-18T06:28:30;6.53;;;1.67;;
20945;SDS011;10632;51.276;7.116;2023-09-18T06:30:57;9.07;;;1.77;;
20945;SDS011;10632;51.276;7.116;2023-09-18T06:33:28;8.75;;;1.92;;
20945;SDS011;10632;51.276;7.116;2023-09-18T06:35:55;8.38;;;1.67;;
20945;SDS011;10632;51.276;7.116;2023-09-18T06:38:24;5.72;;;1.80;;
20945;SDS011;10632;51.276;7.116;2023-09-18T06:40:51;6.47;;;1.65;;
20945;SDS011;10632;51.276;7.116;2023-09-18T06:43:18;9.15;;;1.67;;
20945;SDS011;10632;51.276;7.116;2023-09-18T06:45:45;7.03;;;1.50;;
20945;SDS011;10632;51.276;7.116;2023-09-18T06:48:12;4.90;;;1.40;;
20945;SDS011;10632;51.276;7.116;2023-09-18T06:50:40;4.63;;;1.40;;
20945;SDS011;10632;51.276;7.116;2023-09-18T06:53:07;5.00;;;1.50;;
20945;SDS011;10632;51.276;7.116;2023-09-18T06:55:35;4.43;;;1.33;;
20945;SDS011;10632;51.276;7.116;2023-09-18T06:58:02;4.13;;;1.50;;
20945;SDS011;10632;51.276;7.116;2023-09-18T07:00:29;7.70;;;1.67;;
20945;SDS011;10632;51.276;7.116;2023-09-18T07:02:56;4.88;;;1.58;;
20945;SDS011;10632;51.276;7.116;2023-09-18T07:05:23;5.03;;;1.30;;
20945;SDS011;10632;51.276;7.116;2023-09-18T07:07:51;6.82;;;1.20;;
20945;SDS011;10632;51.276;7.116;2023-09-18T07:10:18;3.63;;;1.40;;
20945;SDS011;10632;51.276;7.116;2023-09-18T07:12:45;4.93;;;1.15;;
20945;SDS011;10632;51.276;7.116;2023-09-18T07:15:14;4.82;;;1.40;;
20945;SDS011;10632;51.276;7.116;2023-09-18T07:17:42;4.53;;;1.30;;
20945;SDS011;10632;51.276;7.116;2023-09-18T07:20:09;4.57;;;1.38;;
20945;SDS011;10632;51.276;7.116;2023-09-18T07:22:44;4.60;;;1.30;;
20945;SDS011;10632;51.276;7.116;2023-09-18T07:25:14;2.70;;;1.17;;
20945;SDS011;10632;51.276;7.116;2023-09-18T07:27:41;4.45;;;1.05;;
20945;SDS011;10632;51.276;7.116;2023-09-18T07:30:11;3.97;;;1.33;;
20945;SDS011;10632;51.276;7.116;2023-09-18T07:32:41;5.43;;;1.52;;
20945;SDS011;10632;51.276;7.116;2023-09-18T07:35:08;5.15;;;1.33;;
20945;SDS011;10632;51.276;7.116;2023-09-18T07:37:35;2.63;;;1.20;;
20945;SDS011;10632;51.276;7.116;2023-09-18T07:40:03;2.67;;;1.10;;
20945;SDS011;10632;51.276;7.116;2023-09-18T07:42:32;4.72;;;1.23;;
20945;SDS011;10632;51.276;7.116;2023-09-18T07:44:59;3.45;;;1.23;;
20945;SDS011;10632;51.276;7.116;2023-09-18T07:47:26;2.75;;;1.20;;
20945;SDS011;10632;51.276;7.116;2023-09-18T07:49:53;5.18;;;1.30;;
20945;SDS011;10632;51.276;7.116;2023-09-18T07:52:20;9.82;;;1.30;;
20945;SDS011;10632;51.276;7.116;2023-09-18T07:54:49;3.88;;;1.10;;
20945;SDS011;10632;51.276;7.116;2023-09-18T07:57:16;3.70;;;1.15;;
20945;SDS011;10632;51.276;7.116;2023-09-18T07:59:45;1.83;;;0.90;;
20945;SDS011;10632;51.276;7.116;2023-09-18T08:02:12;6.40;;;1.13;;
20945;SDS011;10632;51.276;7.116;2023-09-18T08:04:39;4.53;;;1.30;;
20945;SDS011;10632;51.276;7.116;2023-09-18T08:07:06;2.50;;;1.00;;
20945;SDS011;10632;51.276;7.116;2023-09-18T08:09:33;5.22;;;1.08;;
20945;SDS011;10632;51.276;7.116;2023-09-18T08:12:01;3.03;;;1.00;;
20945;SDS011;10632;51.276;7.116;2023-09-18T08:14:28;6.05;;;1.08;;
20945;SDS011;10632;51.276;7.116;2023-09-18T08:16:57;6.68;;;1.42;;
20945;SDS011;10632;51.276;7.116;2023-09-18T08:19:25;3.40;;;1.05;;
20945;SDS011;10632;51.276;7.116;2023-09-18T08:21:52;6.93;;;1.20;;
20945;SDS011;10632;51.276;7.116;2023-09-18T08:24:21;2.80;;;0.95;;
20945;SDS011;10632;51.276;7.116;2023-09-18T08:26:48;4.13;;;0.98;;
20945;SDS011;10632;51.276;7.116;2023-09-18T08:29:15;6.05;;;1.17;;
20945;SDS011;10632;51.276;7.116;2023-09-18T08:31:42;2.88;;;1.08;;
20945;SDS011;10632;51.276;7.116;2023-09-18T08:34:10;2.30;;;0.88;;
20945;SDS011;10632;51.276;7.116;2023-09-18T08:36:37;5.88;;;1.13;;
20945;SDS011;10632;51.276;7.116;2023-09-18T08:39:04;3.38;;;0.95;;
20945;SDS011;10632;51.276;7.116;2023-09-18T08:41:32;3.60;;;0.90;;
20945;SDS011;10632;51.276;7.116;2023-09-18T08:44:04;6.35;;;1.00;;
20945;SDS011;10632;51.276;7.116;2023-09-18T08:46:34;4.63;;;1.08;;
20945;SDS011;10632;51.276;7.116;2023-09-18T08:49:02;2.30;;;0.85;;
20945;SDS011;10632;51.276;7.116;2023-09-18T08:51:32;5.07;;;0.90;;
20945;SDS011;10632;51.276;7.116;2023-09-18T08:54:00;3.47;;;0.95;;
20945;SDS011;10632;51.276;7.116;2023-09-18T08:56:29;2.60;;;0.88;;
20945;SDS011;10632;51.276;7.116;2023-09-18T08:58:57;4.50;;;1.00;;
20945;SDS011;10632;51.276;7.116;2023-09-18T09:01:25;3.22;;;0.90;;
20945;SDS011;10632;51.276;7.116;2023-09-18T09:03:51;3.22;;;0.73;;
20945;SDS011;10632;51.276;7.116;2023-09-18T09:06:18;6.65;;;0.82;;
20945;SDS011;10632;51.276;7.116;2023-09-18T09:08:47;3.72;;;0.95;;
20945;SDS011;10632;51.276;7.116;2023-09-18T09:11:14;3.13;;;0.90;;
20945;SDS011;10632;51.276;7.116;2023-09-18T09:13:41;3.70;;;0.95;;
20945;SDS011;10632;51.276;7.116;2023-09-18T09:16:08;1.67;;;0.77;;
20945;SDS011;10632;51.276;7.116;2023-09-18T09:18:45;5.53;;;1.00;;
20945;SDS011;10632;51.276;7.116;2023-09-18T09:21:14;4.22;;;1.00;;
20945;SDS011;10632;51.276;7.116;2023-09-18T09:23:45;3.22;;;0.88;;
20945;SDS011;10632;51.276;7.116;2023-09-18T09:26:17;4.32;;;0.80;;
20945;SDS011;10632;51.276;7.116;2023-09-18T09:28:45;1.85;;;0.70;;
20945;SDS011;10632;51.276;7.116;2023-09-18T09:31:22;3.25;;;0.90;;
20945;SDS011;10632;51.276;7.116;2023-09-18T09:33:51;2.70;;;0.93;;
20945;SDS011;10632;51.276;7.116;2023-09-18T09:36:19;2.58;;;0.90;;
20945;SDS011;10632;51.276;7.116;2023-09-18T09:38:48;1.98;;;0.93;;
20945;SDS011;10632;51.276;7.116;2023-09-18T09:41:20;4.40;;;0.98;;
20945;SDS011;10632;51.276;7.116;2023-09-18T09:43:47;3.22;;;0.73;;
20945;SDS011;10632;51.276;7.116;2023-09-18T09:46:15;4.85;;;0.90;;
20945;SDS011;10632;51.276;7.116;2023-09-18T09:48:57;4.30;;;0.90;;
20945;SDS011;10632;51.276;7.116;2023-09-18T09:51:26;3.90;;;1.00;;
20945;SDS011;10632;51.276;7.116;2023-09-18T09:53:54;3.25;;;1.00;;
20945;SDS011;10632;51.276;7.116;2023-09-18T09:56:38;2.08;;;0.73;;
20945;SDS011;10632;51.276;7.116;2023-09-18T09:59:07;1.92;;;0.80;;
20945;SDS011;10632;51.276;7.116;2023-09-18T10:01:35;2.33;;;0.73;;
20945;SDS011;10632;51.276;7.116;2023-09-18T10:04:03;1.70;;;0.90;;
20945;SDS011;10632;51.276;7.116;2023-09-18T10:06:33;3.47;;;0.88;;
20945;SDS011;10632;51.276;7.116;2023-09-18T10:09:03;2.47;;;0.82;;
20945;SDS011;10632;51.276;7.116;2023-09-18T10:11:33;1.55;;;0.60;;
20945;SDS011;10632;51.276;7.116;2023-09-18T10:14:04;5.53;;;1.10;;
20945;SDS011;10632;51.276;7.116;2023-09-18T10:16:38;2.00;;;0.90;;
20945;SDS011;10632;51.276;7.116;2023-09-18T10:19:12;1.90;;;0.93;;
20945;SDS011;10632;51.276;7.116;2023-09-18T10:21:44;2.95;;;0.65;;
20945;SDS011;10632;51.276;7.116;2023-09-18T10:24:22;2.92;;;0.90;;
20945;SDS011;10632;51.276;7.116;2023-09-18T10:26:53;2.45;;;0.80;;
20945;SDS011;10632;51.276;7.116;2023-09-18T10:29:23;3.65;;;0.90;;
20945;SDS011;10632;51.276;7.116;2023-09-18T10:31:51;2.13;;;0.90;;
20945;SDS011;10632;51.276;7.116;2023-09-18T10:34:22;5.82;;;0.90;;
20945;SDS011;10632;51.276;7.116;2023-09-18T10:36:51;3.75;;;0.90;;
20945;SDS011;10632;51.276;7.116;2023-09-18T10:39:21;3.33;;;0.82;;
20945;SDS011;10632;51.276;7.116;2023-09-18T10:41:52;3.50;;;1.10;;
20945;SDS011;10632;51.276;7.116;2023-09-18T10:44:22;4.57;;;1.00;;
20945;SDS011;10632;51.276;7.116;2023-09-18T10:46:49;4.85;;;1.00;;
20945;SDS011;10632;51.276;7.116;2023-09-18T10:49:18;3.75;;;0.98;;
20945;SDS011;10632;51.276;7.116;2023-09-18T10:51:45;2.45;;;0.90;;
20945;SDS011;10632;51.276;7.116;2023-09-18T10:54:15;1.58;;;0.70;;
20945;SDS011;10632;51.276;7.116;2023-09-18T10:56:44;3.97;;;0.75;;
20945;SDS011;10632;51.276;7.116;2023-09-18T10:59:13;1.60;;;0.70;;
20945;SDS011;10632;51.276;7.116;2023-09-18T11:01:41;3.22;;;0.90;;
20945;SDS011;10632;51.276;7.116;2023-09-18T11:04:08;3.85;;;0.80;;
20945;SDS011;10632;51.276;7.116;2023-09-18T11:09:31;1.33;;;0.60;;
20945;SDS011;10632;51.276;7.116;2023-09-18T11:12:08;2.25;;;0.85;;
20945;SDS011;10632;51.276;7.116;2023-09-18T11:14:43;3.22;;;0.88;;
20945;SDS011;10632;51.276;7.116;2023-09-18T11:17:36;4.50;;;0.88;;
20945;SDS011;10632;51.276;7.116;2023-09-18T11:20:05;1.52;;;0.75;;
20945;SDS011;10632;51.276;7.116;2023-09-18T11:22:35;3.30;;;0.80;;
20945;SDS011;10632;51.276;7.116;2023-09-18T11:28:05;1.58;;;0.70;;
20945;SDS011;10632;51.276;7.116;2023-09-18T11:30:34;3.08;;;0.90;;
20945;SDS011;10632;51.276;7.116;2023-09-18T11:33:02;2.08;;;0.80;;
20945;SDS011;10632;51.276;7.116;2023-09-18T11:35:29;4.97;;;0.80;;
20945;SDS011;10632;51.276;7.116;2023-09-18T11:38:04;3.15;;;0.90;;
20945;SDS011;10632;51.276;7.116;2023-09-18T11:40:32;2.00;;;0.77;;
20945;SDS011;10632;51.276;7.116;2023-09-18T11:43:24;1.73;;;0.80;;
20945;SDS011;10632;51.276;7.116;2023-09-18T11:45:54;1.90;;;0.80;;
20945;SDS011;10632;51.276;7.116;2023-09-18T11:48:22;3.95;;;0.88;;
20945;SDS011;10632;51.276;7.116;2023-09-18T11:50:53;3.03;;;0.80;;
20945;SDS011;10632;51.276;7.116;2023-09-18T11:53:20;1.98;;;0.90;;
20945;SDS011;10632;51.276;7.116;2023-09-18T11:55:47;3.58;;;0.90;;
20945;SDS011;10632;51.276;7.116;2023-09-18T11:58:14;2.30;;;1.00;;
20945;SDS011;10632;51.276;7.116;2023-09-18T12:00:43;1.35;;;0.70;;
20945;SDS011;10632;51.276;7.116;2023-09-18T12:03:13;3.58;;;0.70;;
20945;SDS011;10632;51.276;7.116;2023-09-18T12:05:43;3.13;;;0.65;;
20945;SDS011;10632;51.276;7.116;2023-09-18T12:08:10;1.77;;;0.77;;
20945;SDS011;10632;51.276;7.116;2023-09-18T12:10:38;1.52;;;0.73;;
20945;SDS011;10632;51.276;7.116;2023-09-18T12:13:05;1.88;;;0.88;;
20945;SDS011;10632;51.276;7.116;2023-09-18T12:15:33;4.50;;;0.90;;
20945;SDS011;10632;51.276;7.116;2023-09-18T12:18:08;2.15;;;0.90;;
20945;SDS011;10632;51.276;7.116;2023-09-18T12:20:37;3.42;;;0.93;;
20945;SDS011;10632;51.276;7.116;2023-09-18T12:23:04;4.63;;;1.10;;
20945;SDS011;10632;51.276;7.116;2023-09-18T12:25:33;4.25;;;0.88;;
20945;SDS011;10632;51.276;7.116;2023-09-18T12:28:00;3.13;;;0.80;;
20945;SDS011;10632;51.276;7.116;2023-09-18T12:30:29;1.63;;;0.77;;
20945;SDS011;10632;51.276;7.116;2023-09-18T12:32:57;3.92;;;0.90;;
20945;SDS011;10632;51.276;7.116;2023-09-18T12:35:27;1.63;;;0.77;;
20945;SDS011;10632;51.276;7.116;2023-09-18T12:37:55;1.95;;;0.80;;
20945;SDS011;10632;51.276;7.116;2023-09-18T12:40:22;1.80;;;0.90;;
20945;SDS011;10632;51.276;7.116;2023-09-18T12:42:50;1.83;;;0.85;;
20945;SDS011;10632;51.276;7.116;2023-09-18T12:45:18;2.28;;;0.88;;
20945;SDS011;10632;51.276;7.116;2023-09-18T12:47:46;2.03;;;0.90;;
20945;SDS011;10632;51.276;7.116;2023-09-18T12:50:13;2.55;;;1.02;;
20945;SDS011;10632;51.276;7.116;2023-09-18T12:52:41;3.75;;;0.73;;
20945;SDS011;10632;51.276;7.116;2023-09-18T12:55:08;2.38;;;0.93;;
20945;SDS011;10632;51.276;7.116;2023-09-18T12:57:46;2.20;;;1.00;;
20945;SDS011;10632;51.276;7.116;2023-09-18T13:00:15;3.92;;;0.88;;
20945;SDS011;10632;51.276;7.116;2023-09-18T13:02:45;1.88;;;1.00;;
20945;SDS011;10632;51.276;7.116;2023-09-18T13:05:12;1.55;;;0.77;;
20945;SDS011;10632;51.276;7.116;2023-09-18T13:07:44;2.15;;;1.10;;
20945;SDS011;10632;51.276;7.116;2023-09-18T13:10:12;4.50;;;1.02;;
20945;SDS011;10632;51.276;7.116;2023-09-18T13:12:42;1.85;;;1.00;;
20945;SDS011;10632;51.276;7.116;2023-09-18T13:15:10;2.67;;;1.00;;
20945;SDS011;10632;51.276;7.116;2023-09-18T13:17:39;3.53;;;0.90;;
20945;SDS011;10632;51.276;7.116;2023-09-18T13:20:09;1.63;;;0.90;;
20945;SDS011;10632;51.276;7.116;2023-09-18T13:22:41;2.42;;;0.90;;
20945;SDS011;10632;51.276;7.116;2023-09-18T13:25:10;2.92;;;0.90;;
20945;SDS011;10632;51.276;7.116;2023-09-18T13:27:40;1.70;;;0.85;;
20945;SDS011;10632;51.276;7.116;2023-09-18T13:30:08;2.13;;;0.80;;
20945;SDS011;10632;51.276;7.116;2023-09-18T13:32:38;3.75;;;0.98;;
20945;SDS011;10632;51.276;7.116;2023-09-18T13:35:05;2.05;;;0.98;;
20945;SDS011;10632;51.276;7.116;2023-09-18T13:37:34;1.92;;;0.70;;
20945;SDS011;10632;51.276;7.116;2023-09-18T13:40:01;2.10;;;0.88;;
20945;SDS011;10632;51.276;7.116;2023-09-18T13:42:32;2.42;;;0.98;;
20945;SDS011;10632;51.276;7.116;2023-09-18T13:44:59;1.88;;;0.90;;
20945;SDS011;10632;51.276;7.116;2023-09-18T13:47:26;1.73;;;0.93;;
20945;SDS011;10632;51.276;7.116;2023-09-18T13:49:53;3.35;;;1.02;;
20945;SDS011;10632;51.276;7.116;2023-09-18T13:52:24;2.22;;;1.05;;
20945;SDS011;10632;51.276;7.116;2023-09-18T13:54:51;2.60;;;0.88;;
20945;SDS011;10632;51.276;7.116;2023-09-18T13:57:18;2.35;;;0.85;;
20945;SDS011;10632;51.276;7.116;2023-09-18T13:59:47;1.73;;;0.80;;
20945;SDS011;10632;51.276;7.116;2023-09-18T14:02:16;3.88;;;1.10;;
20945;SDS011;10632;51.276;7.116;2023-09-18T14:04:43;2.20;;;0.98;;
20945;SDS011;10632;51.276;7.116;2023-09-18T14:07:11;1.67;;;0.90;;
20945;SDS011;10632;51.276;7.116;2023-09-18T14:09:38;4.32;;;1.00;;
20945;SDS011;10632;51.276;7.116;2023-09-18T14:12:05;2.30;;;0.90;;
20945;SDS011;10632;51.276;7.116;2023-09-18T14:14:33;1.45;;;0.80;;
20945;SDS011;10632;51.276;7.116;2023-09-18T14:17:02;1.70;;;0.88;;
20945;SDS011;10632;51.276;7.116;2023-09-18T14:19:30;3.05;;;1.13;;
20945;SDS011;10632;51.276;7.116;2023-09-18T14:21:56;2.25;;;0.80;;
20945;SDS011;10632;51.276;7.116;2023-09-18T14:24:28;1.75;;;0.80;;
20945;SDS011;10632;51.276;7.116;2023-09-18T14:26:55;5.40;;;0.90;;
20945;SDS011;10632;51.276;7.116;2023-09-18T14:29:22;3.25;;;0.95;;
20945;SDS011;10632;51.276;7.116;2023-09-18T14:31:49;2.05;;;0.90;;
20945;SDS011;10632;51.276;7.116;2023-09-18T14:34:20;5.80;;;0.80;;
20945;SDS011;10632;51.276;7.116;2023-09-18T14:36:47;3.40;;;1.00;;
20945;SDS011;10632;51.276;7.116;2023-09-18T14:39:14;3.28;;;0.90;;
20945;SDS011;10632;51.276;7.116;2023-09-18T14:41:41;1.90;;;0.80;;
20945;SDS011;10632;51.276;7.116;2023-09-18T14:44:09;2.45;;;0.95;;
20945;SDS011;10632;51.276;7.116;2023-09-18T14:46:36;1.35;;;0.73;;
20945;SDS011;10632;51.276;7.116;2023-09-18T14:49:03;1.75;;;0.90;;
20945;SDS011;10632;51.276;7.116;2023-09-18T14:51:32;1.88;;;0.70;;
20945;SDS011;10632;51.276;7.116;2023-09-18T14:54:00;3.75;;;0.88;;
20945;SDS011;10632;51.276;7.116;2023-09-18T14:56:29;2.08;;;0.80;;
20945;SDS011;10632;51.276;7.116;2023-09-18T14:58:56;3.10;;;1.00;;
20945;SDS011;10632;51.276;7.116;2023-09-18T15:01:23;2.17;;;0.90;;